PTKR  Koror, Palau, NWS Office Airport

Add Bookmark

Federated States of Micronesia

Status
Operational
Latitude Longitude
7° 19' 48" N 134° 28' 47" E
7.330000 134.480000
Local (DST + 9) UTC (GMT + 9)
Nov 26, 2014 02:06 Nov 26, 2014 05:06
Sunrise-Sunset Local UTC
Begin Civil Twilight 05:33 20:33
Sunrise 05:55 20:55
Sunset 05:42 08:42
End Civil Twilight 06:05 09:05

Current Weather

METAR Observed VFR
PTKR 260451Z 12006KT 15SM FEW018 BKN120 OVC300 31/25 A2975 Wed, Nov 26, 2014 @ 04:51 UTC
(15 Minutes ago)
Visual Flight Rules
Wind Visibility Clouds Conditions
120° at 6 knots (11 kph) 24000 meters
  • Few at 1,800' AGL
  • Broken at 12,000' AGL
  • Overcast at 30,000' AGL
  • No significant weather
Temperatures Readings Precipitation
Current Temp 31°C (88°F)
Dewpoint 25°C (77°F)
Heat Index 38°C (100°F)
Humidity 70%
Altimeter 29.75"Hg
Sea Level Pressure 1007.4mb
Field Elevation 98.43'
None Recorded

Additional weather within a 92.6km radius of PTKR

Map ICAO Location
PTRO 8.1km N (360°)

24 Hour Weather History

Loading
-

24 Hour Weather Graphs

Loading
-

CheckWX.com is intended as a tool to help pilots better visualize weather data. It is not intended as a substitute for an official weather briefing obtained from a Flight Service Station. CheckWX.com does not meet the FAA requirements for an official pre-flight weather briefing. Therefore, it's important that pilots still call and obtain an official FSS pre-flight weather briefing.